createdAt,value
2018-04-06T00:00:16.265Z,3.23
2018-04-06T00:01:16.310Z,3.17
2018-04-06T00:02:16.577Z,3.11
2018-04-06T00:03:16.839Z,3.05
2018-04-06T00:04:17.100Z,3.11
2018-04-06T00:05:16.360Z,3.11
2018-04-06T00:06:16.605Z,3.05
2018-04-06T00:07:16.872Z,3.11
2018-04-06T00:08:17.126Z,3.05
2018-04-06T00:09:16.394Z,2.98
2018-04-06T00:10:16.673Z,3.05
2018-04-06T00:11:16.699Z,3.11
2018-04-06T00:12:16.962Z,3.05
2018-04-06T00:13:16.224Z,3.05
2018-04-06T00:14:16.507Z,3.11
2018-04-06T00:15:16.765Z,2.98
2018-04-06T00:16:17.052Z,2.80
2018-04-06T00:17:16.310Z,2.67
2018-04-06T00:18:16.570Z,2.55
2018-04-06T00:19:16.834Z,2.42
2018-04-06T00:20:17.099Z,2.36
2018-04-06T00:21:17.148Z,2.36
2018-04-06T00:22:16.417Z,2.30
2018-04-06T00:23:16.678Z,2.23
2018-04-06T00:24:16.949Z,2.17
2018-04-06T00:25:16.214Z,2.11
2018-04-06T00:26:16.474Z,2.17
2018-04-06T00:27:16.727Z,2.30
2018-04-06T00:28:16.981Z,2.23
2018-04-06T00:29:16.690Z,2.17
2018-04-06T00:30:16.970Z,2.11
2018-04-06T00:31:17.008Z,2.11
2018-04-06T00:32:16.269Z,2.11
2018-04-06T00:33:16.528Z,2.11
2018-04-06T00:34:16.798Z,2.11
2018-04-06T00:35:17.065Z,2.17
2018-04-06T00:36:16.338Z,2.42
2018-04-06T00:37:16.592Z,2.30
2018-04-06T00:38:16.858Z,2.23
2018-04-06T00:39:17.140Z,2.17
2018-04-06T00:40:16.413Z,2.11
2018-04-06T00:41:16.449Z,2.11
2018-04-06T00:42:16.702Z,2.11
2018-04-06T00:43:16.965Z,2.05
2018-04-06T00:44:16.226Z,1.98
2018-04-06T00:45:16.496Z,1.98
2018-04-06T00:46:16.754Z,1.98
2018-04-06T00:47:17.027Z,1.98
2018-04-06T00:48:16.287Z,1.92
2018-04-06T00:49:16.542Z,1.80
2018-04-06T00:50:16.800Z,1.73
2018-04-06T00:51:16.833Z,1.73
2018-04-06T00:52:17.090Z,1.73
2018-04-06T00:53:16.354Z,1.80
2018-04-06T00:54:16.620Z,1.73
2018-04-06T00:55:16.885Z,1.73
2018-04-06T00:56:17.152Z,1.73
2018-04-06T00:57:16.411Z,1.67
2018-04-06T00:58:16.671Z,1.61
2018-04-06T00:59:16.933Z,1.55
2018-04-06T01:00:17.516Z,1.42
2018-04-06T01:01:16.261Z,1.36
2018-04-06T01:02:16.523Z,1.42
2018-04-06T01:03:16.782Z,1.42
2018-04-06T01:04:17.048Z,1.36
2018-04-06T01:05:16.606Z,1.36
2018-04-06T01:06:16.868Z,1.30
2018-04-06T01:07:17.134Z,1.23
2018-04-06T01:08:16.396Z,1.23
2018-04-06T01:09:16.659Z,1.23
2018-04-06T01:10:16.929Z,1.36
2018-04-06T01:11:16.985Z,1.36
2018-04-06T01:12:16.242Z,1.48
2018-04-06T01:13:16.501Z,1.55
2018-04-06T01:14:16.764Z,1.67
2018-04-06T01:15:17.028Z,1.86
2018-04-06T01:16:16.289Z,1.80
2018-04-06T01:17:16.551Z,1.73
2018-04-06T01:18:16.809Z,1.67
2018-04-06T01:19:17.085Z,1.67
2018-04-06T01:20:16.349Z,1.73
2018-04-06T01:21:16.394Z,1.73
2018-04-06T01:22:16.652Z,1.67
2018-04-06T01:23:16.913Z,1.67
2018-04-06T01:24:17.168Z,1.61
2018-04-06T01:25:16.442Z,1.55
2018-04-06T01:26:16.703Z,1.48
2018-04-06T01:27:16.969Z,1.42
2018-04-06T01:28:16.224Z,1.30
2018-04-06T01:29:16.486Z,1.23
2018-04-06T01:30:16.762Z,1.23
2018-04-06T01:31:16.799Z,1.23
2018-04-06T01:32:17.071Z,1.23
2018-04-06T01:33:16.330Z,1.23
2018-04-06T01:34:16.588Z,1.17
2018-04-06T01:35:16.848Z,1.11
2018-04-06T01:36:17.108Z,1.05
2018-04-06T01:37:16.365Z,0.92
2018-04-06T01:38:16.633Z,0.86
2018-04-06T01:39:16.897Z,0.80
2018-04-06T01:40:17.161Z,0.73
2018-04-06T01:41:16.259Z,0.67
2018-04-06T01:42:16.517Z,0.61
2018-04-06T01:43:16.782Z,0.55
2018-04-06T01:44:17.048Z,0.48
2018-04-06T01:45:16.305Z,0.42
2018-04-06T01:46:16.565Z,0.42
2018-04-06T01:47:16.815Z,0.42
2018-04-06T01:48:17.085Z,0.42
2018-04-06T01:49:16.344Z,0.36
2018-04-06T01:50:16.610Z,0.36
2018-04-06T01:51:16.649Z,0.36
2018-04-06T01:52:16.918Z,0.36
2018-04-06T01:53:17.185Z,0.36
2018-04-06T01:54:16.441Z,0.30
2018-04-06T01:55:16.701Z,0.23
2018-04-06T01:56:16.965Z,0.11
2018-04-06T01:57:16.241Z,-0.02
2018-04-06T01:58:16.500Z,-0.14
2018-04-06T01:59:17.076Z,-0.20
2018-04-06T02:00:16.342Z,-0.14
2018-04-06T02:01:16.392Z,-0.08
2018-04-06T02:02:16.655Z,-0.02
2018-04-06T02:03:16.925Z,-0.02
2018-04-06T02:04:17.184Z,-0.39
2018-04-06T02:05:16.451Z,-0.64
2018-04-06T02:06:16.716Z,-0.70
2018-04-06T02:07:16.966Z,-0.77
2018-04-06T02:08:16.224Z,-0.83
2018-04-06T02:09:16.487Z,-0.89
2018-04-06T02:10:16.749Z,-0.95
2018-04-06T02:11:16.790Z,-1.02
2018-04-06T02:12:17.049Z,-0.89
2018-04-06T02:13:16.301Z,-0.89
2018-04-06T02:14:16.553Z,-0.89
2018-04-06T02:15:16.821Z,-0.77
2018-04-06T02:16:17.079Z,-0.70
2018-04-06T02:17:16.346Z,-0.77
2018-04-06T02:18:16.599Z,-0.83
2018-04-06T02:19:16.863Z,-0.83
2018-04-06T02:20:17.121Z,-0.83
2018-04-06T02:21:17.169Z,-0.95
2018-04-06T02:22:16.427Z,-1.02
2018-04-06T02:23:16.692Z,-0.89
2018-04-06T02:24:16.956Z,-0.64
2018-04-06T02:25:16.222Z,-0.58
2018-04-06T02:26:16.484Z,-0.64
2018-04-06T02:27:16.746Z,-0.58
2018-04-06T02:28:17.004Z,-0.52
2018-04-06T02:29:16.273Z,-0.45
2018-04-06T02:30:16.546Z,-0.33
2018-04-06T02:31:16.599Z,-0.27
2018-04-06T02:32:16.866Z,-0.27
2018-04-06T02:33:17.125Z,-0.20
2018-04-06T02:34:16.390Z,-0.14
2018-04-06T02:35:16.664Z,-0.14
2018-04-06T02:36:16.945Z,-0.14
2018-04-06T02:37:16.216Z,-0.08
2018-04-06T02:38:16.479Z,-0.02
2018-04-06T02:39:16.748Z,-0.08
2018-04-06T02:40:17.038Z,-0.08
2018-04-06T02:41:17.065Z,-0.08
2018-04-06T02:42:16.329Z,-0.08
2018-04-06T02:43:16.595Z,-0.08
2018-04-06T02:44:16.862Z,-0.08
2018-04-06T02:45:17.120Z,-0.14
2018-04-06T02:46:16.391Z,-0.20
2018-04-06T02:47:16.656Z,-0.14
2018-04-06T02:48:16.909Z,-0.20
2018-04-06T02:49:17.181Z,-0.27
2018-04-06T02:50:16.449Z,-0.14
2018-04-06T02:51:16.529Z,-0.14
2018-04-06T02:52:16.784Z,-0.14
2018-04-06T02:53:17.048Z,-0.20
2018-04-06T02:54:16.331Z,-0.27
2018-04-06T02:55:16.598Z,-0.27
2018-04-06T02:56:16.869Z,-0.39
2018-04-06T02:57:17.143Z,-0.33
2018-04-06T02:58:16.406Z,-0.33
2018-04-06T02:59:16.671Z,-0.33
2018-04-06T03:00:16.941Z,-0.39
2018-04-06T03:01:16.985Z,-0.45
2018-04-06T03:02:16.247Z,-0.45
2018-04-06T03:03:16.513Z,-0.58
2018-04-06T03:04:16.774Z,-0.58
2018-04-06T03:05:17.033Z,-0.64
2018-04-06T03:06:16.286Z,-0.58
2018-04-06T03:07:16.552Z,-0.52
2018-04-06T03:08:16.809Z,-0.58
2018-04-06T03:09:17.093Z,-0.58
2018-04-06T03:10:16.373Z,-0.39
2018-04-06T03:11:16.422Z,-0.39
2018-04-06T03:12:16.681Z,-0.39
2018-04-06T03:13:16.945Z,-0.39
2018-04-06T03:14:16.208Z,-0.45
2018-04-06T03:15:16.470Z,-0.52
2018-04-06T03:16:16.744Z,-0.58
2018-04-06T03:17:17.016Z,-0.64
2018-04-06T03:18:16.273Z,-0.64
2018-04-06T03:19:16.525Z,-0.64
2018-04-06T03:20:16.804Z,-0.70
2018-04-06T03:21:16.855Z,-0.70
2018-04-06T03:22:17.117Z,-0.77
2018-04-06T03:23:16.390Z,-0.89
2018-04-06T03:24:16.647Z,-0.95
2018-04-06T03:25:16.905Z,-1.02
2018-04-06T03:26:17.481Z,-1.02
2018-04-06T03:27:16.746Z,-1.02
2018-04-06T03:28:17.007Z,-1.02
2018-04-06T03:29:16.262Z,-1.02
2018-04-06T03:30:16.544Z,-1.02
2018-04-06T03:31:16.582Z,-1.08
2018-04-06T03:32:16.870Z,-1.02
2018-04-06T03:33:17.127Z,-1.08
2018-04-06T03:34:16.388Z,-1.14
2018-04-06T03:35:16.643Z,-1.14
2018-04-06T03:36:16.906Z,-1.08
2018-04-06T03:37:17.160Z,-1.08
2018-04-06T03:38:16.418Z,-1.02
2018-04-06T03:39:16.680Z,-0.95
2018-04-06T03:40:16.943Z,-0.95
2018-04-06T03:41:16.985Z,-1.02
2018-04-06T03:42:16.247Z,-1.08
2018-04-06T03:43:16.510Z,-1.20
2018-04-06T03:44:16.775Z,-1.20
2018-04-06T03:45:17.051Z,-1.14
2018-04-06T03:46:16.315Z,-1.08
2018-04-06T03:47:16.569Z,-1.08
2018-04-06T03:48:16.825Z,-1.02
2018-04-06T03:49:17.093Z,-1.08
2018-04-06T03:50:16.358Z,-1.14
2018-04-06T03:51:16.405Z,-1.20
2018-04-06T03:52:16.662Z,-1.33
2018-04-06T03:53:16.920Z,-1.33
2018-04-06T03:54:17.182Z,-1.45
2018-04-06T03:55:16.447Z,-1.58
2018-04-06T03:56:16.710Z,-1.64
2018-04-06T03:57:16.971Z,-1.64
2018-04-06T03:58:16.227Z,-1.64
2018-04-06T03:59:16.486Z,-1.58
2018-04-06T04:00:16.768Z,-1.58
2018-04-06T04:01:16.804Z,-1.52
2018-04-06T04:02:17.065Z,-1.52
2018-04-06T04:03:16.327Z,-1.52
2018-04-06T04:04:16.599Z,-1.52
2018-04-06T04:05:16.864Z,-1.64
2018-04-06T04:06:17.124Z,-1.70
2018-04-06T04:07:16.395Z,-1.70
2018-04-06T04:08:16.657Z,-1.70
2018-04-06T04:09:16.922Z,-1.77
2018-04-06T04:10:17.187Z,-1.77
2018-04-06T04:11:16.237Z,-1.77
2018-04-06T04:12:16.498Z,-1.77
2018-04-06T04:13:16.758Z,-1.77
2018-04-06T04:14:17.019Z,-1.83
2018-04-06T04:15:16.273Z,-1.89
2018-04-06T04:16:16.537Z,-1.89
2018-04-06T04:17:16.810Z,-1.95
2018-04-06T04:18:17.066Z,-1.89
2018-04-06T04:19:16.328Z,-1.83
2018-04-06T04:20:16.599Z,-1.83
2018-04-06T04:21:16.652Z,-1.89
2018-04-06T04:22:16.909Z,-1.89
2018-04-06T04:23:17.168Z,-1.95
2018-04-06T04:24:16.425Z,-1.95
2018-04-06T04:25:16.698Z,-2.02
2018-04-06T04:26:16.964Z,-2.02
2018-04-06T04:27:16.232Z,-2.02
2018-04-06T04:28:16.494Z,-2.02
2018-04-06T04:29:16.750Z,-2.08
2018-04-06T04:30:17.030Z,-2.02
2018-04-06T04:31:17.065Z,-2.02
2018-04-06T04:32:16.566Z,-2.02
2018-04-06T04:33:16.824Z,-2.08
2018-04-06T04:34:17.086Z,-2.08
2018-04-06T04:35:16.351Z,-2.08
2018-04-06T04:36:16.621Z,-2.08
2018-04-06T04:37:16.889Z,-2.08
2018-04-06T04:38:17.159Z,-2.08
2018-04-06T04:39:16.416Z,-2.02
2018-04-06T04:40:16.686Z,-2.02
2018-04-06T04:41:16.703Z,-2.02
2018-04-06T04:42:16.958Z,-1.95
2018-04-06T04:43:16.213Z,-1.89
2018-04-06T04:44:16.483Z,-1.95
2018-04-06T04:45:16.764Z,-2.02
2018-04-06T04:46:17.015Z,-2.08
2018-04-06T04:47:16.276Z,-2.08
2018-04-06T04:48:16.549Z,-2.08
2018-04-06T04:49:16.810Z,-2.14
2018-04-06T04:50:17.377Z,-2.14
2018-04-06T04:51:17.135Z,-2.08
2018-04-06T04:52:16.393Z,-2.08
2018-04-06T04:53:16.704Z,-2.02
2018-04-06T04:54:17.022Z,-1.95
2018-04-06T04:55:16.287Z,-1.95
2018-04-06T04:56:16.551Z,-1.89
2018-04-06T04:57:16.818Z,-1.83
2018-04-06T04:58:17.085Z,-1.89
2018-04-06T04:59:16.352Z,-1.89
2018-04-06T05:00:16.620Z,-1.89
2018-04-06T05:01:16.664Z,-1.83
2018-04-06T05:02:16.926Z,-1.77
2018-04-06T05:03:17.186Z,-1.70
2018-04-06T05:04:16.450Z,-1.70
2018-04-06T05:05:16.703Z,-1.77
2018-04-06T05:06:16.964Z,-1.77
2018-04-06T05:07:16.227Z,-1.77
2018-04-06T05:08:16.485Z,-1.77
2018-04-06T05:09:16.739Z,-1.70
2018-04-06T05:10:17.014Z,-1.77
2018-04-06T05:11:17.042Z,-1.77
2018-04-06T05:12:16.304Z,-1.77
2018-04-06T05:13:16.561Z,-1.77
2018-04-06T05:14:16.819Z,-1.77
2018-04-06T05:15:17.094Z,-1.70
2018-04-06T05:16:16.364Z,-1.70
2018-04-06T05:17:16.626Z,-1.77
2018-04-06T05:18:16.889Z,-1.77
2018-04-06T05:19:17.147Z,-1.70
2018-04-06T05:20:16.407Z,-1.52
2018-04-06T05:21:16.464Z,-1.39
2018-04-06T05:22:16.728Z,-1.33
2018-04-06T05:23:16.992Z,-1.33
2018-04-06T05:24:16.261Z,-1.33
2018-04-06T05:25:16.536Z,-1.33
2018-04-06T05:26:16.809Z,-1.27
2018-04-06T05:27:17.072Z,-1.33
2018-04-06T05:28:16.332Z,-1.33
2018-04-06T05:29:16.608Z,-1.39
2018-04-06T05:30:16.892Z,-1.39
2018-04-06T05:31:16.918Z,-1.39
2018-04-06T05:32:17.178Z,-1.45
2018-04-06T05:33:16.441Z,-1.45
2018-04-06T05:34:16.700Z,-1.39
2018-04-06T05:35:16.971Z,-1.39
2018-04-06T05:36:16.250Z,-1.39
2018-04-06T05:37:16.516Z,-1.39
2018-04-06T05:38:16.781Z,-1.39
2018-04-06T05:39:17.044Z,-1.39
2018-04-06T05:40:16.312Z,-1.39
2018-04-06T05:41:16.348Z,-1.39
2018-04-06T05:42:16.602Z,-1.33
2018-04-06T05:43:16.860Z,-1.33
2018-04-06T05:44:17.118Z,-1.33
2018-04-06T05:45:16.384Z,-1.20
2018-04-06T05:46:16.645Z,-1.20
2018-04-06T05:47:16.910Z,-1.14
2018-04-06T05:48:17.166Z,-1.14
2018-04-06T05:49:16.428Z,-1.14
2018-04-06T05:50:16.701Z,-1.08
2018-04-06T05:51:16.738Z,-1.08
2018-04-06T05:52:17.003Z,-1.02
2018-04-06T05:53:16.258Z,-1.02
2018-04-06T05:54:16.523Z,-0.95
2018-04-06T05:55:16.786Z,-0.89
2018-04-06T05:56:17.059Z,-0.89
2018-04-06T05:57:16.340Z,-0.89
2018-04-06T05:58:16.623Z,-0.83
2018-04-06T05:59:16.962Z,-0.83
2018-04-06T06:00:16.230Z,-0.77
2018-04-06T06:01:16.284Z,-0.64
2018-04-06T06:02:16.546Z,-0.45
2018-04-06T06:03:16.810Z,-0.33
2018-04-06T06:04:17.093Z,-0.27
2018-04-06T06:05:16.350Z,-0.14
2018-04-06T06:06:16.608Z,-0.08
2018-04-06T06:07:16.876Z,-0.14
2018-04-06T06:08:17.139Z,-0.14
2018-04-06T06:09:16.405Z,-0.08
2018-04-06T06:10:16.672Z,-0.08
2018-04-06T06:11:16.712Z,-0.08
2018-04-06T06:12:16.968Z,-0.02
2018-04-06T06:13:16.233Z,0.11
2018-04-06T06:14:16.489Z,0.17
2018-04-06T06:15:16.765Z,0.30
2018-04-06T06:16:17.084Z,0.36
2018-04-06T06:17:16.341Z,0.36
2018-04-06T06:18:16.596Z,0.42
2018-04-06T06:19:16.860Z,0.48
2018-04-06T06:20:17.247Z,0.48
2018-04-06T06:21:17.173Z,0.55
2018-04-06T06:22:16.439Z,0.61
2018-04-06T06:23:16.736Z,0.61
2018-04-06T06:24:17.089Z,0.73
2018-04-06T06:25:16.351Z,0.80
2018-04-06T06:26:16.624Z,0.92
2018-04-06T06:27:16.884Z,0.98
2018-04-06T06:28:17.148Z,1.05
2018-04-06T06:29:16.421Z,1.11
2018-04-06T06:30:16.760Z,1.17
2018-04-06T06:31:16.812Z,1.23
2018-04-06T06:32:17.064Z,1.23
2018-04-06T06:33:16.332Z,1.30
2018-04-06T06:34:16.602Z,1.42
2018-04-06T06:35:16.857Z,1.55
2018-04-06T06:36:17.121Z,1.55
2018-04-06T06:37:16.379Z,1.61
2018-04-06T06:38:16.645Z,1.67
2018-04-06T06:39:16.906Z,1.73
2018-04-06T06:40:17.181Z,1.80
2018-04-06T06:41:16.219Z,1.86
2018-04-06T06:42:16.477Z,1.98
2018-04-06T06:43:16.730Z,2.05
2018-04-06T06:44:16.990Z,2.05
2018-04-06T06:45:16.255Z,2.11
2018-04-06T06:46:16.533Z,2.17
2018-04-06T06:47:16.790Z,2.11
2018-04-06T06:48:17.048Z,2.17
2018-04-06T06:49:16.308Z,2.23
2018-04-06T06:50:16.584Z,2.30
2018-04-06T06:51:16.601Z,2.48
2018-04-06T06:52:16.860Z,2.55
2018-04-06T06:53:17.124Z,2.61
2018-04-06T06:54:16.409Z,2.67
2018-04-06T06:55:16.725Z,2.73
2018-04-06T06:56:16.988Z,2.80
2018-04-06T06:57:16.305Z,2.80
2018-04-06T06:58:16.583Z,2.86
2018-04-06T06:59:16.860Z,2.86
2018-04-06T07:00:17.449Z,2.92
2018-04-06T07:01:17.195Z,2.98
2018-04-06T07:02:16.471Z,2.98
2018-04-06T07:03:16.913Z,3.05
2018-04-06T07:04:16.193Z,3.05
2018-04-06T07:05:16.456Z,3.11
2018-04-06T07:06:16.718Z,3.11
2018-04-06T07:07:16.980Z,3.17
2018-04-06T07:08:16.243Z,3.17
2018-04-06T07:09:16.505Z,3.23
2018-04-06T07:10:16.772Z,3.36
2018-04-06T07:11:16.812Z,3.36
2018-04-06T07:12:17.077Z,3.42
2018-04-06T07:13:16.337Z,3.48
2018-04-06T07:14:16.609Z,3.48
2018-04-06T07:15:16.868Z,3.61
2018-04-06T07:16:17.131Z,3.73
2018-04-06T07:17:16.391Z,3.73
2018-04-06T07:18:16.658Z,3.86
2018-04-06T07:19:16.919Z,3.92
2018-04-06T07:20:17.200Z,3.98
2018-04-06T07:21:16.247Z,4.11
2018-04-06T07:22:16.505Z,4.17
2018-04-06T07:23:16.769Z,4.23
2018-04-06T07:24:17.037Z,4.30
2018-04-06T07:25:16.294Z,4.36
2018-04-06T07:26:16.568Z,4.42
2018-04-06T07:27:16.823Z,4.48
2018-04-06T07:28:17.089Z,4.61
2018-04-06T07:29:16.403Z,4.67
2018-04-06T07:30:16.664Z,4.67
2018-04-06T07:31:16.726Z,4.73
2018-04-06T07:32:16.994Z,4.80
2018-04-06T07:33:16.270Z,4.86
2018-04-06T07:34:16.532Z,4.86
2018-04-06T07:35:16.788Z,4.86
2018-04-06T07:36:17.054Z,4.92
2018-04-06T07:37:16.320Z,4.98
2018-04-06T07:38:16.588Z,5.05
2018-04-06T07:39:16.855Z,5.11
2018-04-06T07:40:17.122Z,5.05
2018-04-06T07:41:17.169Z,5.17
2018-04-06T07:42:16.428Z,5.23
2018-04-06T07:43:16.691Z,5.30
2018-04-06T07:44:17.007Z,5.42
2018-04-06T07:45:16.476Z,5.36
2018-04-06T07:46:16.736Z,5.42
2018-04-06T07:47:17.005Z,5.48
2018-04-06T07:48:16.261Z,5.55
2018-04-06T07:49:16.517Z,5.73
2018-04-06T07:50:16.773Z,5.73
2018-04-06T07:51:16.818Z,5.80
2018-04-06T07:52:17.124Z,5.86
2018-04-06T07:53:16.385Z,5.80
2018-04-06T07:54:16.666Z,5.73
2018-04-06T07:55:16.925Z,5.80
2018-04-06T07:56:17.503Z,5.73
2018-04-06T07:57:16.775Z,5.80
2018-04-06T07:58:17.042Z,5.73
2018-04-06T07:59:16.304Z,5.73
2018-04-06T08:00:16.570Z,5.86
2018-04-06T08:01:16.606Z,5.80
2018-04-06T08:02:16.887Z,5.73
2018-04-06T08:03:17.148Z,5.92
2018-04-06T08:04:16.406Z,6.11
2018-04-06T08:05:16.667Z,6.36
2018-04-06T08:06:16.931Z,6.36
2018-04-06T08:07:17.200Z,6.48
2018-04-06T08:08:16.465Z,6.61
2018-04-06T08:09:16.736Z,6.61
2018-04-06T08:10:17.004Z,6.67
2018-04-06T08:11:17.040Z,6.73
2018-04-06T08:12:16.313Z,6.80
2018-04-06T08:13:16.589Z,6.86
2018-04-06T08:14:16.856Z,6.86
2018-04-06T08:15:17.113Z,6.73
2018-04-06T08:16:16.377Z,6.55
2018-04-06T08:17:16.644Z,6.61
2018-04-06T08:18:16.906Z,6.67
2018-04-06T08:19:17.175Z,6.61
2018-04-06T08:20:16.441Z,6.61
2018-04-06T08:21:16.500Z,6.67
2018-04-06T08:22:16.758Z,6.67
2018-04-06T08:23:17.017Z,6.73
2018-04-06T08:24:16.274Z,6.73
2018-04-06T08:25:16.535Z,6.80
2018-04-06T08:26:16.869Z,6.86
2018-04-06T08:27:16.257Z,6.92
2018-04-06T08:28:16.520Z,6.86
2018-04-06T08:29:16.788Z,6.92
2018-04-06T08:30:17.073Z,7.05
2018-04-06T08:31:17.122Z,7.11
2018-04-06T08:32:16.381Z,7.23
2018-04-06T08:33:16.641Z,7.42
2018-04-06T08:34:16.912Z,7.48
2018-04-06T08:35:17.184Z,7.30
2018-04-06T08:36:16.443Z,7.30
2018-04-06T08:37:16.696Z,7.48
2018-04-06T08:38:16.956Z,7.48
2018-04-06T08:39:16.217Z,7.48
2018-04-06T08:40:16.491Z,7.42
2018-04-06T08:41:16.527Z,7.55
2018-04-06T08:42:16.797Z,7.55
2018-04-06T08:43:17.063Z,7.67
2018-04-06T08:44:16.330Z,7.61
2018-04-06T08:45:16.590Z,7.73
2018-04-06T08:46:16.850Z,7.92
2018-04-06T08:47:17.125Z,7.86
2018-04-06T08:48:16.388Z,7.92
2018-04-06T08:49:16.656Z,7.86
2018-04-06T08:50:16.923Z,7.98
2018-04-06T08:51:16.987Z,7.92
2018-04-06T08:52:16.248Z,7.98
2018-04-06T08:53:16.513Z,7.98
2018-04-06T08:54:16.775Z,7.98
2018-04-06T08:55:17.041Z,7.92
2018-04-06T08:56:16.293Z,7.98
2018-04-06T08:57:16.566Z,7.98
2018-04-06T08:58:16.829Z,8.05
2018-04-06T08:59:17.082Z,8.11
2018-04-06T09:00:16.352Z,8.36
2018-04-06T09:01:16.393Z,8.30
2018-04-06T09:02:16.655Z,8.36
2018-04-06T09:03:16.925Z,8.42
2018-04-06T09:04:17.194Z,8.73
2018-04-06T09:05:16.452Z,8.86
2018-04-06T09:06:16.729Z,8.92
2018-04-06T09:07:16.994Z,8.92
2018-04-06T09:08:16.258Z,8.86
2018-04-06T09:09:16.558Z,8.98
2018-04-06T09:10:16.836Z,9.05
2018-04-06T09:11:16.885Z,9.05
2018-04-06T09:12:17.149Z,9.11
2018-04-06T09:13:16.423Z,9.05
2018-04-06T09:14:16.688Z,8.98
2018-04-06T09:15:16.958Z,8.80
2018-04-06T09:16:16.226Z,8.61
2018-04-06T09:17:16.481Z,8.61
2018-04-06T09:18:16.746Z,8.48
2018-04-06T09:19:17.000Z,8.80
2018-04-06T09:20:16.306Z,8.92
2018-04-06T09:21:16.351Z,8.86
2018-04-06T09:22:16.636Z,8.67
2018-04-06T09:23:16.903Z,8.61
2018-04-06T09:24:17.161Z,8.86
2018-04-06T09:25:16.427Z,8.98
2018-04-06T09:26:16.689Z,9.11
2018-04-06T09:27:16.956Z,9.23
2018-04-06T09:28:16.230Z,9.30
2018-04-06T09:29:16.498Z,9.61
2018-04-06T09:30:16.785Z,10.17
2018-04-06T09:31:16.826Z,11.05
2018-04-06T09:32:17.090Z,11.92
2018-04-06T09:33:16.353Z,12.48
2018-04-06T09:34:16.615Z,12.92
2018-04-06T09:35:16.876Z,13.55
2018-04-06T09:36:17.391Z,13.14
2018-04-06T09:37:16.657Z,12.55
2018-04-06T09:38:16.927Z,12.86
2018-04-06T09:39:17.189Z,12.55
2018-04-06T09:40:16.441Z,12.48
2018-04-06T09:41:16.492Z,12.11
2018-04-06T09:42:16.749Z,12.17
2018-04-06T09:43:17.013Z,11.98
2018-04-06T09:44:16.274Z,11.36
2018-04-06T09:45:16.547Z,11.05
2018-04-06T09:46:16.815Z,10.55
2018-04-06T09:47:17.071Z,10.42
2018-04-06T09:48:16.338Z,10.23
2018-04-06T09:49:16.602Z,10.55
2018-04-06T09:50:16.871Z,10.61
2018-04-06T09:51:16.906Z,10.17
2018-04-06T09:52:17.173Z,10.36
2018-04-06T09:53:16.436Z,10.23
2018-04-06T09:54:16.694Z,10.11
2018-04-06T09:55:16.955Z,10.11
2018-04-06T09:56:16.217Z,10.42
2018-04-06T09:57:16.474Z,10.30
2018-04-06T09:58:16.738Z,9.73
2018-04-06T09:59:17.001Z,9.73
2018-04-06T10:00:16.280Z,9.80
2018-04-06T10:01:16.324Z,9.86
2018-04-06T10:02:16.595Z,10.23
2018-04-06T10:03:16.850Z,10.30
2018-04-06T10:04:17.118Z,10.11
2018-04-06T10:05:16.379Z,10.11
2018-04-06T10:06:16.644Z,10.36
2018-04-06T10:07:16.900Z,9.92
2018-04-06T10:08:17.159Z,10.05
2018-04-06T10:09:16.428Z,9.98
2018-04-06T10:10:16.701Z,10.30
2018-04-06T10:11:16.737Z,10.48
2018-04-06T10:12:17.012Z,9.92
2018-04-06T10:13:16.275Z,9.92
2018-04-06T10:14:16.536Z,10.11
2018-04-06T10:15:16.799Z,10.42
2018-04-06T10:16:17.094Z,10.48
2018-04-06T10:17:16.389Z,10.30
2018-04-06T10:18:16.647Z,10.30
2018-04-06T10:19:16.919Z,10.61
2018-04-06T10:20:17.202Z,10.73
2018-04-06T10:21:16.234Z,10.80
2018-04-06T10:22:16.496Z,10.48
2018-04-06T10:23:16.758Z,10.17
2018-04-06T10:24:17.020Z,10.11
2018-04-06T10:25:16.282Z,10.17
2018-04-06T10:26:16.550Z,10.17
2018-04-06T10:27:16.812Z,10.30
2018-04-06T10:28:17.078Z,10.23
2018-04-06T10:29:16.345Z,10.17
2018-04-06T10:30:16.610Z,10.17
2018-04-06T10:31:16.670Z,10.11
2018-04-06T10:32:16.934Z,10.11
2018-04-06T10:33:17.206Z,10.36
2018-04-06T10:34:16.557Z,10.48
2018-04-06T10:35:16.817Z,10.42
2018-04-06T10:36:17.370Z,10.05
2018-04-06T10:37:16.636Z,9.98
2018-04-06T10:38:16.897Z,10.17
2018-04-06T10:39:17.159Z,10.61
2018-04-06T10:40:16.429Z,10.67
2018-04-06T10:41:16.474Z,10.11
2018-04-06T10:42:16.740Z,10.05
2018-04-06T10:43:17.014Z,10.30
2018-04-06T10:44:16.272Z,10.42
2018-04-06T10:45:16.544Z,10.67
2018-04-06T10:46:16.816Z,11.11
2018-04-06T10:47:17.082Z,11.05
2018-04-06T10:48:16.348Z,11.23
2018-04-06T10:49:16.609Z,11.17
2018-04-06T10:50:16.870Z,10.86
2018-04-06T10:51:16.904Z,10.67
2018-04-06T10:52:17.169Z,10.61
2018-04-06T10:53:16.425Z,10.73
2018-04-06T10:54:16.698Z,10.98
2018-04-06T10:55:16.960Z,11.23
2018-04-06T10:56:16.234Z,11.23
2018-04-06T10:57:16.495Z,11.05
2018-04-06T10:58:16.757Z,11.05
2018-04-06T10:59:17.023Z,10.80
2018-04-06T11:00:16.293Z,10.98
2018-04-06T11:01:16.333Z,11.36
2018-04-06T11:02:16.588Z,11.42
2018-04-06T11:03:16.856Z,11.42
2018-04-06T11:04:17.112Z,11.42
2018-04-06T11:05:16.379Z,11.36
2018-04-06T11:06:16.642Z,11.36
2018-04-06T11:07:16.896Z,11.30
2018-04-06T11:08:17.166Z,11.36
2018-04-06T11:09:16.434Z,11.30
2018-04-06T11:10:16.686Z,11.23
2018-04-06T11:11:16.733Z,11.23
2018-04-06T11:12:16.996Z,11.36
2018-04-06T11:13:16.258Z,11.48
2018-04-06T11:14:16.525Z,11.48
2018-04-06T11:15:16.789Z,11.36
2018-04-06T11:16:17.115Z,11.23
2018-04-06T11:17:16.440Z,11.61
2018-04-06T11:18:16.705Z,11.30
2018-04-06T11:19:16.965Z,11.11
2018-04-06T11:20:16.223Z,11.17
2018-04-06T11:21:16.276Z,11.23
2018-04-06T11:22:16.543Z,11.61
2018-04-06T11:23:16.799Z,11.67
2018-04-06T11:24:17.060Z,11.67
2018-04-06T11:25:16.326Z,11.61
2018-04-06T11:26:16.580Z,11.73
2018-04-06T11:27:16.846Z,11.86
2018-04-06T11:28:17.102Z,12.05
2018-04-06T11:29:16.355Z,11.98
2018-04-06T11:30:16.629Z,11.80
2018-04-06T11:31:16.665Z,11.73
2018-04-06T11:32:16.929Z,11.61
2018-04-06T11:33:17.200Z,11.55
2018-04-06T11:34:16.467Z,11.48
2018-04-06T11:35:16.728Z,11.80
2018-04-06T11:36:16.993Z,11.98
2018-04-06T11:37:16.257Z,11.80
2018-04-06T11:38:16.511Z,11.98
2018-04-06T11:39:16.776Z,12.23
2018-04-06T11:40:17.046Z,12.17
2018-04-06T11:41:17.092Z,12.17
2018-04-06T11:42:16.355Z,12.11
2018-04-06T11:43:16.623Z,12.17
2018-04-06T11:44:16.884Z,11.92
2018-04-06T11:45:17.147Z,11.61
2018-04-06T11:46:16.417Z,11.86
2018-04-06T11:47:16.684Z,12.36
2018-04-06T11:48:16.947Z,12.42
2018-04-06T11:49:16.214Z,12.11
2018-04-06T11:50:16.486Z,12.23
2018-04-06T11:51:16.508Z,12.42
2018-04-06T11:52:16.779Z,12.36
2018-04-06T11:53:17.035Z,12.23
2018-04-06T11:54:16.292Z,12.48
2018-04-06T11:55:16.559Z,12.42
2018-04-06T11:56:16.823Z,11.92
2018-04-06T11:57:17.095Z,11.86
2018-04-06T11:58:16.360Z,12.05
2018-04-06T11:59:16.616Z,12.36
2018-04-06T12:00:16.884Z,12.23
2018-04-06T12:01:16.916Z,12.17
2018-04-06T12:02:17.182Z,12.08
2018-04-06T12:03:16.452Z,12.23
2018-04-06T12:04:16.707Z,12.18
2018-04-06T12:05:16.967Z,12.18
2018-04-06T12:06:16.224Z,12.19
2018-04-06T12:07:16.489Z,12.08
2018-04-06T12:08:16.749Z,11.98
2018-04-06T12:09:17.015Z,12.04
2018-04-06T12:10:16.339Z,11.84
2018-04-06T12:11:16.370Z,11.98
2018-04-06T12:12:16.634Z,11.90
2018-04-06T12:13:16.916Z,11.93
2018-04-06T12:14:17.177Z,11.66
2018-04-06T12:15:16.440Z,11.64
2018-04-06T12:16:16.698Z,11.66
2018-04-06T12:17:16.956Z,11.83
2018-04-06T12:18:16.213Z,11.91
2018-04-06T12:19:16.476Z,12.09
2018-04-06T12:20:16.739Z,11.98
2018-04-06T12:21:16.784Z,12.26
2018-04-06T12:22:17.050Z,12.32
2018-04-06T12:23:16.321Z,12.18
2018-04-06T12:24:16.582Z,12.16
2018-04-06T12:25:16.856Z,11.91
2018-04-06T12:26:17.121Z,12.08
2018-04-06T12:27:16.391Z,12.08
2018-04-06T12:28:16.662Z,11.97
2018-04-06T12:29:16.926Z,11.88
2018-04-06T12:30:17.197Z,11.98
2018-04-06T12:31:16.244Z,12.01
2018-04-06T12:32:16.513Z,12.09
2018-04-06T12:33:16.773Z,12.08
2018-04-06T12:34:17.040Z,12.08
2018-04-06T12:35:16.307Z,11.99
2018-04-06T12:36:16.558Z,11.98
2018-04-06T12:37:16.822Z,12.01
2018-04-06T12:38:17.085Z,11.81
2018-04-06T12:39:16.348Z,11.87
2018-04-06T12:40:16.626Z,12.11
2018-04-06T12:41:16.643Z,12.23
2018-04-06T12:42:16.903Z,12.23
2018-04-06T12:43:17.167Z,12.27
2018-04-06T12:44:16.432Z,12.24
2018-04-06T12:45:16.693Z,12.20
2018-04-06T12:46:16.951Z,12.30
2018-04-06T12:47:16.220Z,12.44
2018-04-06T12:48:16.486Z,12.19
2018-04-06T12:49:16.750Z,12.30
2018-04-06T12:50:17.016Z,12.28
2018-04-06T12:51:17.061Z,12.46
2018-04-06T12:52:16.318Z,12.51
2018-04-06T12:53:16.574Z,12.49
2018-04-06T12:54:16.834Z,12.59
2018-04-06T12:55:17.102Z,12.58
2018-04-06T12:56:16.361Z,12.48
2018-04-06T12:57:16.618Z,12.53
2018-04-06T12:58:16.880Z,12.28
2018-04-06T12:59:17.142Z,12.24
2018-04-06T13:00:16.405Z,12.19
2018-04-06T13:01:16.452Z,12.28
2018-04-06T13:02:16.712Z,12.34
2018-04-06T13:03:16.971Z,12.45